Time;durP1;ratioP1;P1;durP2;ratioP2;P2;SDS_P1;SDS_P2;PMS_P1;PMS_P2;Temp;Humidity;BMP_temperature;BMP_pressure;BME280_temperature;BME280_humidity;BME280_pressure;Samples;Min_cycle;Max_cycle;Signal;HPM_P1;HPM_P2
2021/04/01 00:00:13;;;;;;;12.28;7.42;;;;;;;12.92;70.71;96976.03;1781928;80;21500;-86
2021/04/01 00:02:53;;;;;;;10.85;7.47;;;;;;;12.94;70.86;96978.66;1734549;81;21168;-85
2021/04/01 00:05:26;;;;;;;10.75;7.22;;;;;;;12.93;70.46;96977.63;1751195;80;21119;-85
2021/04/01 00:07:53;;;;;;;13.60;7.35;;;;;;;12.91;70.86;96967.27;1767991;80;21462;-85
2021/04/01 00:10:28;;;;;;;12.47;7.80;;;;;;;12.95;70.68;96964.31;1756894;81;21119;-84
2021/04/01 00:12:56;;;;;;;11.88;7.08;;;;;;;12.94;70.76;96954.71;1763385;81;21492;-85
2021/04/01 00:15:23;;;;;;;13.08;7.85;;;;;;;12.98;70.75;96953.09;1744554;80;21470;-85
2021/04/01 00:17:50;;;;;;;12.65;7.95;;;;;;;12.94;70.78;96958.70;1754457;81;21311;-84
2021/04/01 00:20:18;;;;;;;14.68;7.85;;;;;;;12.91;70.56;96945.98;1771817;80;21103;-85
2021/04/01 00:22:45;;;;;;;12.68;7.97;;;;;;;12.88;70.48;96949.21;1764314;80;21503;-84
2021/04/01 00:25:16;;;;;;;14.55;8.85;;;;;;;12.83;70.63;96950.61;1763778;80;21128;-85
2021/04/01 00:27:43;;;;;;;13.70;8.38;;;;;;;12.85;70.91;96945.00;1759446;81;21467;-85
2021/04/01 00:30:12;;;;;;;15.90;8.60;;;;;;;12.84;70.86;96946.88;1721300;81;21615;-85
2021/04/01 00:32:40;;;;;;;14.55;7.90;;;;;;;12.81;70.83;96935.98;1733515;81;21106;-85
2021/04/01 00:35:09;;;;;;;13.03;7.65;;;;;;;12.80;70.99;96935.19;1744039;81;21099;-85
2021/04/01 00:37:36;;;;;;;14.53;7.53;;;;;;;12.78;71.10;96940.80;1733419;82;21498;-85
2021/04/01 00:40:07;;;;;;;13.08;7.90;;;;;;;12.78;71.20;96936.02;1742682;81;21166;-84
2021/04/01 00:42:35;;;;;;;14.65;8.18;;;;;;;12.73;71.14;96929.44;1751515;80;21158;-84
2021/04/01 00:45:07;;;;;;;12.58;7.08;;;;;;;12.71;71.10;96931.59;1720736;81;21135;-84
2021/04/01 00:47:39;;;;;;;12.70;7.78;;;;;;;12.67;71.37;96926.59;1735544;81;21239;-84
2021/04/01 00:50:11;;;;;;;14.47;8.10;;;;;;;12.64;71.44;96923.94;1739418;81;21118;-85
2021/04/01 00:52:39;;;;;;;13.25;8.05;;;;;;;12.58;71.64;96911.78;1741458;81;21124;-85
2021/04/01 00:55:10;;;;;;;13.98;8.25;;;;;;;12.54;71.59;96911.31;1741316;81;21161;-85
2021/04/01 00:57:41;;;;;;;15.05;8.50;;;;;;;12.46;71.98;96913.50;1753751;81;21078;-85
2021/04/01 01:00:13;;;;;;;10.32;6.05;;;;;;;12.42;72.01;96908.50;1746457;81;21113;-85
2021/04/01 01:02:40;;;;;;;13.00;7.12;;;;;;;12.38;72.45;96915.44;1759146;81;21141;-85
2021/04/01 01:05:12;;;;;;;12.95;7.03;;;;;;;12.34;72.58;96887.05;1762826;80;21078;-85
2021/04/01 01:07:39;;;;;;;12.55;8.50;;;;;;;12.32;72.75;96890.52;1761351;81;21469;-85
2021/04/01 01:10:18;;;;;;;11.57;8.18;;;;;;;12.34;72.72;96899.01;1760535;80;21254;-85
2021/04/01 01:12:46;;;;;;;15.28;7.55;;;;;;;12.32;72.69;96889.20;1763896;80;21097;-85
2021/04/01 01:15:14;;;;;;;15.32;8.35;;;;;;;12.30;72.80;96896.66;1776614;80;21117;-85
2021/04/01 01:17:42;;;;;;;14.53;7.12;;;;;;;12.30;72.84;96884.16;1777433;80;21209;-85
2021/04/01 01:20:10;;;;;;;10.28;6.37;;;;;;;12.34;72.68;96884.38;1770357;80;21120;-85
2021/04/01 01:22:39;;;;;;;12.25;7.10;;;;;;;12.37;72.68;96877.17;1789625;80;21317;-85
2021/04/01 01:25:10;;;;;;;9.73;4.90;;;;;;;12.44;72.56;96874.44;1769800;80;21129;-85
2021/04/01 01:27:39;;;;;;;8.50;4.62;;;;;;;12.49;72.29;96875.70;1761493;80;21106;-85
2021/04/01 01:30:16;;;;;;;10.88;5.17;;;;;;;12.49;72.21;96861.08;1781346;80;21489;-85
2021/04/01 01:32:48;;;;;;;11.00;7.03;;;;;;;12.47;72.08;96864.56;1777110;80;21129;-85
2021/04/01 01:35:25;;;;;;;10.40;6.90;;;;;;;12.42;72.15;96859.84;1761179;80;21109;-85
2021/04/01 01:37:59;;;;;;;13.58;7.05;;;;;;;12.35;72.27;96866.82;1764709;80;21154;-85
2021/04/01 01:40:29;;;;;;;13.35;6.90;;;;;;;12.28;72.70;96862.93;1768858;80;21106;-85
2021/04/01 01:43:00;;;;;;;13.45;5.17;;;;;;;12.19;72.86;96861.41;1764351;80;21512;-85
2021/04/01 01:45:29;;;;;;;11.60;7.00;;;;;;;12.16;73.28;96854.02;1774560;80;21113;-85
2021/04/01 01:47:57;;;;;;;12.53;6.85;;;;;;;12.19;73.23;96868.06;1781562;80;21129;-85
2021/04/01 01:50:29;;;;;;;10.23;6.90;;;;;;;12.18;73.25;96861.16;1765897;80;21121;-85
2021/04/01 01:52:58;;;;;;;11.97;6.70;;;;;;;12.14;73.20;96850.84;1774678;80;21129;-85
2021/04/01 01:55:27;;;;;;;10.48;6.28;;;;;;;12.10;73.32;96843.95;1780147;80;21477;-85
2021/04/01 01:57:54;;;;;;;8.73;5.67;;;;;;;12.12;73.46;96841.83;1784804;80;21125;-85
2021/04/01 02:00:32;;;;;;;10.85;6.92;;;;;;;12.15;73.47;96848.44;1766362;80;21408;-85
2021/04/01 02:03:04;;;;;;;13.30;7.00;;;;;;;12.16;73.32;96836.20;1767941;80;21147;-85
2021/04/01 02:05:34;;;;;;;11.83;6.30;;;;;;;12.16;73.13;96839.39;1773893;80;21106;-85
2021/04/01 02:08:02;;;;;;;11.75;6.53;;;;;;;12.14;73.10;96839.67;1781456;80;21160;-85
2021/04/01 02:10:36;;;;;;;15.18;6.67;;;;;;;12.13;72.99;96837.31;1776671;80;21129;-85
2021/04/01 02:13:05;;;;;;;12.25;7.15;;;;;;;12.14;72.90;96833.58;1781432;80;21117;-85
2021/04/01 02:15:36;;;;;;;9.65;5.28;;;;;;;12.13;72.94;96830.13;1760981;81;21128;-85
2021/04/01 02:18:14;;;;;;;10.48;6.45;;;;;;;12.14;72.91;96820.28;1776333;80;21129;-85
2021/04/01 02:20:48;;;;;;;11.43;6.92;;;;;;;12.17;72.83;96827.69;1776731;80;21135;-85
2021/04/01 02:23:24;;;;;;;10.98;6.50;;;;;;;12.13;72.70;96828.00;1786170;80;21183;-85
2021/04/01 02:25:54;;;;;;;14.18;7.42;;;;;;;12.13;72.86;96816.05;1743341;80;21113;-85
2021/04/01 02:28:25;;;;;;;12.88;7.45;;;;;;;12.12;72.77;96823.77;1769044;80;21127;-85
2021/04/01 02:30:57;;;;;;;10.93;7.37;;;;;;;12.14;72.70;96814.97;1761045;80;21117;-85
2021/04/01 02:33:28;;;;;;;10.13;6.60;;;;;;;12.15;72.55;96820.53;1783021;80;21110;-85
2021/04/01 02:35:56;;;;;;;7.87;5.75;;;;;;;12.09;72.62;96816.33;1740847;80;21316;-85
2021/04/01 02:38:25;;;;;;;12.15;6.03;;;;;;;12.07;72.79;96807.86;1765111;80;21118;-85
2021/04/01 02:40:54;;;;;;;12.73;7.12;;;;;;;12.06;72.77;96808.39;1775645;80;21639;-85
2021/04/01 02:43:29;;;;;;;9.43;5.33;;;;;;;12.04;72.68;96808.42;1767154;80;21121;-85
2021/04/01 02:45:51;;;;;;;11.10;6.85;;;;;;;11.98;72.86;96802.92;1785047;80;21110;-85
2021/04/01 02:48:18;;;;;;;10.43;6.22;;;;;;;11.95;73.00;96808.78;1788698;80;21623;-85
2021/04/01 02:50:45;;;;;;;10.30;6.62;;;;;;;11.96;73.17;96807.70;1771483;80;21620;-85
2021/04/01 02:53:12;;;;;;;10.43;4.90;;;;;;;11.98;73.15;96808.23;1761953;81;21533;-85
2021/04/01 02:55:39;;;;;;;12.75;6.80;;;;;;;12.02;73.08;96802.61;1770612;80;21117;-85
2021/04/01 02:58:07;;;;;;;10.80;4.85;;;;;;;12.04;72.92;96811.08;1780801;80;21236;-85
2021/04/01 03:00:36;;;;;;;12.40;6.12;;;;;;;12.03;72.95;96801.53;1761965;81;21204;-85
2021/04/01 03:03:09;;;;;;;11.57;5.97;;;;;;;12.03;72.93;96803.66;1764852;80;21160;-85
2021/04/01 03:05:36;;;;;;;11.60;7.35;;;;;;;12.04;72.89;96795.14;1764882;80;21470;-85
2021/04/01 03:08:04;;;;;;;10.82;7.15;;;;;;;12.05;72.87;96800.17;1762136;81;21182;-85
2021/04/01 03:10:31;;;;;;;10.53;7.10;;;;;;;12.04;72.67;96791.16;1776645;80;21639;-85
2021/04/01 03:12:58;;;;;;;12.65;7.03;;;;;;;12.01;72.68;96790.39;1762657;80;21500;-85
2021/04/01 03:15:25;;;;;;;12.88;7.25;;;;;;;11.95;72.62;96790.18;1760108;80;21496;-85
2021/04/01 03:17:53;;;;;;;17.80;6.42;;;;;;;11.94;72.82;96785.94;1761509;80;21513;-85
2021/04/01 03:20:20;;;;;;;10.25;6.30;;;;;;;11.89;72.90;96786.80;1776308;80;21496;-85
2021/04/01 03:22:47;;;;;;;10.40;5.92;;;;;;;11.84;73.03;96792.96;1773972;80;21464;-85
2021/04/01 03:25:14;;;;;;;10.03;6.80;;;;;;;11.83;73.03;96779.43;1779679;80;21263;-85
2021/04/01 03:27:42;;;;;;;13.10;6.62;;;;;;;11.80;73.20;96766.69;1759826;80;21094;-85
2021/04/01 03:30:13;;;;;;;10.15;5.92;;;;;;;11.80;73.35;96771.20;1767819;80;21247;-85
2021/04/01 03:32:44;;;;;;;10.50;6.33;;;;;;;11.80;73.37;96769.34;1769546;80;21270;-85
2021/04/01 03:35:17;;;;;;;12.45;7.00;;;;;;;11.83;73.21;96786.07;1745204;80;21479;-85
2021/04/01 03:37:46;;;;;;;11.45;6.15;;;;;;;11.82;73.09;96782.34;1762077;80;21130;-85
2021/04/01 03:40:14;;;;;;;7.58;4.60;;;;;;;11.82;73.10;96781.01;1761839;80;21128;-85
2021/04/01 03:42:40;;;;;;;10.03;6.65;;;;;;;11.85;73.09;96775.95;1761502;80;21169;-85
2021/04/01 03:45:11;;;;;;;11.43;6.47;;;;;;;11.91;72.93;96771.91;1762347;80;21154;-86
2021/04/01 03:47:40;;;;;;;11.83;7.15;;;;;;;11.90;72.88;96775.09;1761810;80;21135;-85
2021/04/01 03:50:10;;;;;;;10.38;5.65;;;;;;;11.85;72.88;96772.50;1762840;80;21139;-85
2021/04/01 03:52:39;;;;;;;10.88;6.30;;;;;;;11.85;72.99;96758.69;1772659;80;21113;-85
2021/04/01 03:55:17;;;;;;;10.15;7.00;;;;;;;11.85;73.00;96769.84;1762142;80;21239;-85
2021/04/01 03:57:40;;;;;;;12.20;6.55;;;;;;;11.84;73.03;96766.40;1760283;80;21125;-85
2021/04/01 04:00:11;;;;;;;10.75;7.03;;;;;;;11.83;73.00;96766.14;1759251;80;21125;-85
2021/04/01 04:02:44;;;;;;;12.13;6.92;;;;;;;11.81;72.78;96763.49;1762914;80;21172;-85
2021/04/01 04:05:19;;;;;;;11.22;8.43;;;;;;;11.74;72.96;96768.33;1761764;80;21137;-85
2021/04/01 04:10:45;;;;;;;13.22;7.35;;;;;;;11.71;73.23;96768.90;1768679;80;21211;-85
2021/04/01 04:13:23;;;;;;;11.10;7.58;;;;;;;11.73;72.90;96754.27;1785607;80;21243;-85
2021/04/01 04:15:50;;;;;;;11.08;7.70;;;;;;;11.79;72.99;96758.47;1762637;80;21138;-85
2021/04/01 04:18:17;;;;;;;10.13;6.50;;;;;;;11.82;72.74;96749.95;1768280;80;21109;-85
2021/04/01 04:20:44;;;;;;;10.32;6.50;;;;;;;11.80;72.70;96753.41;1773386;80;21451;-85
2021/04/01 04:23:14;;;;;;;10.18;6.87;;;;;;;11.78;72.87;96746.23;1766893;80;21406;-85
2021/04/01 04:25:40;;;;;;;10.28;6.67;;;;;;;11.79;72.67;96746.52;1777935;80;21476;-85
2021/04/01 04:28:28;;;;;;;10.98;6.28;;;;;;;11.84;72.74;96739.84;1752978;80;21121;-85
2021/04/01 04:30:55;;;;;;;11.05;7.08;;;;;;;11.93;72.60;96743.97;1766783;80;21109;-85
2021/04/01 04:33:22;;;;;;;10.30;6.58;;;;;;;12.07;72.41;96745.41;1779951;80;21121;-85
2021/04/01 04:35:48;;;;;;;9.83;6.33;;;;;;;12.18;72.05;96740.23;1758411;80;21132;-85
2021/04/01 04:38:16;;;;;;;10.40;6.85;;;;;;;12.37;71.82;96737.59;1750144;80;21159;-85
2021/04/01 04:40:43;;;;;;;11.75;6.80;;;;;;;12.59;71.46;96737.04;1771228;80;21141;-85
2021/04/01 04:43:10;;;;;;;10.93;6.47;;;;;;;12.76;70.87;96738.11;1770877;80;21094;-85
2021/04/01 04:45:37;;;;;;;10.53;6.35;;;;;;;12.86;69.80;96717.22;1774078;80;21629;-85
2021/04/01 04:48:04;;;;;;;11.63;7.42;;;;;;;13.01;69.67;96720.19;1762452;80;21187;-85
2021/04/01 04:50:31;;;;;;;11.03;6.83;;;;;;;13.21;69.53;96730.52;1761594;80;21484;-85
2021/04/01 04:52:58;;;;;;;8.95;6.12;;;;;;;13.52;69.21;96728.14;1767893;80;21161;-85
2021/04/01 04:55:26;;;;;;;9.83;6.03;;;;;;;13.88;68.52;96724.81;1766427;80;21113;-85
2021/04/01 04:57:58;;;;;;;10.93;6.83;;;;;;;14.07;66.89;96721.48;1767923;80;21158;-86
2021/04/01 05:06:05;;;;;;;13.43;7.33;;;;;;;14.79;65.94;96724.26;1761608;80;21603;-85
2021/04/01 05:08:32;;;;;;;8.73;6.03;;;;;;;15.24;65.71;96723.47;1761298;80;21144;-84
2021/04/01 05:11:00;;;;;;;9.23;6.28;;;;;;;15.64;64.40;96726.48;1757047;80;21177;-84
2021/04/01 05:13:26;;;;;;;10.10;6.12;;;;;;;15.89;63.00;96723.66;1761513;81;21488;-83
2021/04/01 05:15:53;;;;;;;10.70;6.85;;;;;;;16.14;62.20;96721.38;1762777;80;21494;-84
2021/04/01 05:18:27;;;;;;;10.48;6.05;;;;;;;16.33;61.55;96719.23;1761402;80;21143;-83
2021/04/01 05:20:57;;;;;;;9.65;6.42;;;;;;;16.58;60.54;96723.81;1761323;80;21115;-85
2021/04/01 05:23:35;;;;;;;10.35;6.55;;;;;;;16.87;60.38;96715.75;1775720;80;21125;-85
2021/04/01 05:28:52;;;;;;;9.93;6.00;;;;;;;17.76;59.58;96708.27;1766922;80;21103;-85
2021/04/01 05:31:23;;;;;;;8.60;6.30;;;;;;;18.05;58.47;96703.48;1749776;81;21161;-85
2021/04/01 05:33:49;;;;;;;9.53;6.00;;;;;;;18.30;56.76;96704.46;1743111;81;21126;-85
2021/04/01 05:36:21;;;;;;;7.92;5.47;;;;;;;18.28;55.40;96702.63;1725653;81;21128;-85
2021/04/01 05:38:47;;;;;;;11.40;6.53;;;;;;;18.24;54.81;96701.72;1763388;80;21116;-85
2021/04/01 05:41:15;;;;;;;10.82;6.58;;;;;;;18.05;54.71;96694.09;1764465;80;21141;-85
2021/04/01 05:43:49;;;;;;;8.20;5.80;;;;;;;17.92;54.41;96702.38;1758856;80;21143;-85
2021/04/01 05:46:17;;;;;;;7.28;5.10;;;;;;;18.02;54.38;96697.98;1770157;80;21118;-85
2021/04/01 05:49:13;;;;;;;9.55;5.37;;;;;;;17.65;53.01;96690.15;1769497;81;21267;-85
2021/04/01 05:51:58;;;;;;;8.05;5.83;;;;;;;17.35;53.53;96683.39;1780134;80;21114;-86
2021/04/01 06:03:19;;;;;;;10.80;5.75;;;;;;;18.20;52.09;96692.75;1780043;80;21186;-85
2021/04/01 06:05:48;;;;;;;10.72;5.80;;;;;;;18.08;51.27;96679.25;1764095;80;21109;-85
2021/04/01 06:08:18;;;;;;;10.03;5.80;;;;;;;18.21;51.81;96685.48;1765671;80;21149;-85
2021/04/01 06:10:48;;;;;;;8.13;6.00;;;;;;;18.47;50.92;96678.61;1772826;80;21140;-85
2021/04/01 06:13:18;;;;;;;9.40;6.03;;;;;;;18.65;51.59;96674.14;1751972;81;21095;-85
2021/04/01 06:15:51;;;;;;;10.90;5.50;;;;;;;19.16;49.85;96677.49;1781616;80;21155;-85
2021/04/01 06:18:22;;;;;;;10.03;5.97;;;;;;;19.59;48.69;96666.07;1773141;80;21183;-85
2021/04/01 06:20:52;;;;;;;9.63;6.15;;;;;;;19.79;50.16;96670.56;1756632;80;21305;-84
2021/04/01 06:23:29;;;;;;;10.10;5.08;;;;;;;20.58;48.30;96662.98;1756535;80;21117;-85
2021/04/01 06:25:58;;;;;;;5.67;4.65;;;;;;;21.08;47.62;96670.53;1760294;80;21109;-85
2021/04/01 06:28:43;;;;;;;7.70;5.17;;;;;;;21.72;45.39;96668.17;1772126;80;21125;-85
2021/04/01 06:31:12;;;;;;;7.15;5.15;;;;;;;22.01;44.51;96659.39;1745495;81;21295;-85
2021/04/01 06:33:49;;;;;;;7.72;5.25;;;;;;;22.09;45.69;96658.44;1718396;80;21543;-85
2021/04/01 06:36:27;;;;;;;8.25;5.00;;;;;;;22.67;44.20;96662.03;1746122;81;21152;-85
2021/04/01 06:38:53;;;;;;;11.75;5.53;;;;;;;22.57;43.40;96652.35;1739241;80;21533;-85
2021/04/01 06:41:27;;;;;;;7.58;5.00;;;;;;;22.54;42.02;96653.84;1759209;81;21136;-85
2021/04/01 06:44:19;;;;;;;5.97;4.40;;;;;;;22.35;43.50;96641.08;1780676;80;21092;-85
2021/04/01 06:46:48;;;;;;;10.60;5.12;;;;;;;22.67;41.65;96640.42;1772133;80;21462;-86
2021/04/01 06:49:39;;;;;;;7.58;5.42;;;;;;;22.71;43.42;96638.56;1796192;80;21148;-86
2021/04/01 06:52:04;;;;;;;7.92;4.90;;;;;;;22.71;43.42;96638.56;1771235;80;21287;-85
2021/04/01 06:54:36;;;;;;;8.18;4.97;;;;;;;22.84;41.36;96641.16;1767507;80;21181;-86
2021/04/01 06:57:20;;;;;;;9.30;5.33;;;;;;;22.97;41.24;96641.99;1770189;80;21118;-86
2021/04/01 07:00:09;;;;;;;7.92;5.40;;;;;;;23.06;40.49;96650.64;1770820;80;21666;-86
2021/04/01 07:02:38;;;;;;;7.47;4.55;;;;;;;22.78;41.22;96650.06;1770012;80;21130;-85
2021/04/01 07:05:23;;;;;;;7.12;4.85;;;;;;;22.91;41.40;96655.57;1764763;80;21144;-85
2021/04/01 07:07:55;;;;;;;5.55;4.15;;;;;;;23.21;40.85;96646.85;1770164;80;21446;-86
2021/04/01 07:10:39;;;;;;;8.38;5.67;;;;;;;23.32;40.68;96649.19;1765951;79;21177;-86
2021/04/01 07:13:04;;;;;;;;;;;;;;;23.64;41.01;96655.95;1788621;79;21191;-86
2021/04/01 07:15:34;;;;;;;7.30;5.20;;;;;;;24.47;40.14;96659.34;1780895;79;20128;-86
2021/04/01 07:18:15;;;;;;;8.03;5.08;;;;;;;24.99;40.10;96657.66;1778600;79;22453;-86
2021/04/01 07:20:48;;;;;;;8.23;5.12;;;;;;;25.85;38.94;96641.08;1765478;79;21112;-86
2021/04/01 07:23:50;;;;;;;7.58;4.92;;;;;;;26.45;37.30;96638.56;1747887;81;21138;-86
2021/04/01 07:32:20;;;;;;;7.58;4.33;;;;;;;27.36;34.56;96631.13;1749356;79;21129;-86
2021/04/01 07:35:05;;;;;;;6.08;4.37;;;;;;;27.21;32.96;96627.61;1767417;79;21479;-87
2021/04/01 07:46:21;;;;;;;6.78;4.10;;;;;;;27.77;33.84;96609.20;1783081;79;21558;-86
2021/04/01 07:48:52;;;;;;;7.70;5.15;;;;;;;28.23;32.81;96602.89;1750986;79;21112;-83
2021/04/01 07:51:41;;;;;;;7.20;5.20;;;;;;;28.54;32.89;96610.02;1768532;80;21123;-84
2021/04/01 07:54:03;;;;;;;10.10;5.97;;;;;;;28.69;31.87;96605.47;1749580;81;21254;-83
2021/04/01 07:56:36;;;;;;;8.88;4.60;;;;;;;29.07;32.54;96598.11;1765766;80;21129;-83
2021/04/01 07:59:23;;;;;;;7.90;4.47;;;;;;;29.64;32.54;96593.63;1766453;80;21174;-85
2021/04/01 08:01:59;;;;;;;10.93;5.22;;;;;;;29.80;31.41;96589.77;1753188;80;21082;-86
2021/04/01 08:04:27;;;;;;;6.70;4.90;;;;;;;29.90;32.09;96591.64;1754438;80;21194;-86
2021/04/01 08:07:06;;;;;;;;;;;;;;;30.47;31.17;96592.44;1778675;80;21195;-86
2021/04/01 08:09:42;;;;;;;7.10;4.55;;;;;;;31.23;31.56;96589.70;1769049;80;20189;-86
2021/04/01 08:12:23;;;;;;;7.15;4.35;;;;;;;31.48;29.71;96592.66;1768555;80;21182;-86
2021/04/01 08:15:11;;;;;;;7.00;4.65;;;;;;;30.51;28.77;96592.38;1763043;80;21162;-86
2021/04/01 08:17:46;;;;;;;7.40;4.37;;;;;;;30.36;29.42;96591.19;1785678;80;21129;-85
2021/04/01 08:20:29;;;;;;;7.12;4.20;;;;;;;29.63;28.47;96596.17;1765482;80;21637;-86
2021/04/01 08:23:04;;;;;;;11.40;5.28;;;;;;;28.74;28.24;96585.20;1774298;80;21125;-86
2021/04/01 08:25:37;;;;;;;8.35;5.53;;;;;;;28.48;29.06;96576.16;1778467;80;21113;-86
2021/04/01 08:28:20;;;;;;;8.65;5.17;;;;;;;28.60;30.55;96581.18;1758519;80;21115;-86
2021/04/01 08:33:34;;;;;;;7.28;4.95;;;;;;;29.32;28.84;96572.78;1767890;80;21117;-85
2021/04/01 08:36:02;;;;;;;9.28;4.62;;;;;;;28.77;29.41;96571.34;1764986;80;21149;-86
2021/04/01 08:38:30;;;;;;;7.35;4.42;;;;;;;29.40;30.29;96570.17;1764613;80;21143;-86
2021/04/01 08:41:03;;;;;;;7.20;4.58;;;;;;;29.30;27.33;96564.22;1766836;80;21169;-86
2021/04/01 08:43:41;;;;;;;9.90;5.40;;;;;;;28.09;29.23;96562.81;1770413;80;21146;-86
2021/04/01 08:50:26;;;;;;;9.15;5.78;;;;;;;27.74;29.30;96557.45;1801817;78;23088;-86
2021/04/01 08:52:59;;;;;;;;;;;;;;;27.31;29.44;96557.44;1763233;79;21109;-87
2021/04/01 08:55:44;;;;;;;11.12;5.80;;;;;;;26.66;29.70;96552.23;1755367;81;20133;-87
2021/04/01 08:58:28;;;;;;;10.88;5.97;;;;;;;26.28;31.96;96557.11;1757208;81;21456;-86
2021/04/01 09:01:08;;;;;;;9.85;5.55;;;;;;;26.29;30.90;96549.15;1752431;80;21242;-86
2021/04/01 09:03:34;;;;;;;9.20;5.40;;;;;;;25.70;31.64;96538.94;1740085;81;21250;-86
2021/04/01 09:06:01;;;;;;;8.85;5.62;;;;;;;25.41;32.69;96544.72;1757883;81;21146;-86
2021/04/01 09:08:34;;;;;;;9.53;5.60;;;;;;;25.81;33.91;96535.72;1727131;81;21199;-83
2021/04/01 09:11:03;;;;;;;12.98;5.97;;;;;;;25.50;32.45;96541.11;1743840;81;21618;-83
2021/04/01 09:13:32;;;;;;;9.18;5.08;;;;;;;24.36;32.67;96532.44;1751747;81;21626;-83
2021/04/01 09:16:04;;;;;;;9.18;5.47;;;;;;;23.55;34.59;96532.26;1758062;81;21281;-83
2021/04/01 09:18:33;;;;;;;9.75;5.00;;;;;;;23.32;34.90;96528.23;1742494;81;21238;-82
2021/04/01 09:21:03;;;;;;;9.55;5.22;;;;;;;23.49;36.19;96524.80;1760636;80;21155;-82
2021/04/01 09:23:41;;;;;;;8.90;5.30;;;;;;;23.42;35.79;96526.06;1752046;81;21254;-82
2021/04/01 09:26:12;;;;;;;8.70;5.15;;;;;;;23.47;35.98;96521.68;1745956;81;21293;-84
2021/04/01 09:28:44;;;;;;;7.12;4.50;;;;;;;23.47;36.16;96512.99;1750912;81;21084;-84
2021/04/01 09:31:14;;;;;;;8.65;5.72;;;;;;;23.33;35.53;96504.09;1756353;80;21147;-84
2021/04/01 09:33:43;;;;;;;10.13;5.62;;;;;;;22.91;35.28;96508.23;1760361;81;21262;-84
2021/04/01 09:36:19;;;;;;;10.03;5.70;;;;;;;22.49;35.34;96512.27;1752463;81;21097;-84
2021/04/01 09:38:53;;;;;;;13.68;5.28;;;;;;;22.19;35.46;96495.87;1754377;81;21619;-84
2021/04/01 09:41:33;;;;;;;10.32;5.70;;;;;;;22.10;36.60;96497.45;1754008;81;21131;-85
2021/04/01 09:44:08;;;;;;;;;;;;;;;22.05;36.77;96496.91;1750467;81;21136;-86
2021/04/01 09:47:10;;;;;;;9.90;5.05;;;;;;;22.19;37.14;96491.83;1753678;81;20133;-85
2021/04/01 09:50:07;;;;;;;8.28;5.08;;;;;;;22.13;36.68;96492.69;1747681;81;21145;-86
2021/04/01 09:52:36;;;;;;;8.88;4.92;;;;;;;22.16;36.21;96489.84;1749855;80;21152;-86
2021/04/01 09:55:08;;;;;;;7.92;4.83;;;;;;;22.02;36.87;96489.53;1721385;81;21156;-85
2021/04/01 09:57:48;;;;;;;9.25;5.10;;;;;;;21.98;35.73;96471.14;1748241;81;21183;-85
2021/04/01 10:00:48;;;;;;;7.95;5.25;;;;;;;21.80;34.55;96469.40;1753810;81;21143;-84
2021/04/01 10:03:23;;;;;;;8.18;4.62;;;;;;;21.72;35.25;96471.19;1754386;81;21167;-84
2021/04/01 10:05:52;;;;;;;64.03;28.93;;;;;;;21.83;35.69;96469.50;1758567;81;21220;-84
2021/04/01 10:08:36;;;;;;;15.38;6.67;;;;;;;21.94;35.83;96459.67;1726421;80;21178;-84
2021/04/01 10:11:14;;;;;;;28.17;14.38;;;;;;;21.84;35.80;96461.61;1753136;81;21229;-85
2021/04/01 10:13:42;;;;;;;18.35;10.10;;;;;;;21.45;36.13;96466.16;1755899;81;21113;-85
2021/04/01 10:16:24;;;;;;;26.20;11.70;;;;;;;21.38;35.34;96461.16;1758647;81;21162;-85
2021/04/01 10:18:53;;;;;;;8.28;4.92;;;;;;;21.40;36.14;96459.70;1733498;81;21484;-85
2021/04/01 10:21:20;;;;;;;8.55;5.20;;;;;;;21.78;34.37;96448.73;1727922;81;21149;-84
2021/04/01 10:23:58;;;;;;;11.50;4.97;;;;;;;22.08;33.45;96448.98;1759565;81;21475;-85
2021/04/01 10:26:37;;;;;;;10.23;4.83;;;;;;;22.20;33.42;96443.43;1747999;81;21123;-85
2021/04/01 10:29:10;;;;;;;7.30;3.47;;;;;;;22.36;33.25;96448.16;1758331;81;21161;-85
2021/04/01 10:31:50;;;;;;;;;;;;;;;22.60;32.13;96425.44;1755497;81;21155;-85
2021/04/01 10:34:38;;;;;;;7.85;3.92;;;;;;;22.52;32.08;96435.90;1759163;81;20122;-85
2021/04/01 10:37:12;;;;;;;9.60;4.12;;;;;;;22.23;31.57;96438.66;1751143;81;21169;-85
2021/04/01 10:39:42;;;;;;;6.87;3.92;;;;;;;22.16;32.32;96431.79;1757758;81;21137;-85
2021/04/01 10:42:12;;;;;;;6.58;4.35;;;;;;;22.25;32.83;96433.70;1747746;81;21142;-80
2021/04/01 10:44:41;;;;;;;6.53;3.60;;;;;;;22.46;32.04;96421.92;1750715;81;21121;-81
2021/04/01 10:47:14;;;;;;;5.87;3.55;;;;;;;22.67;31.88;96413.41;1752026;81;21163;-81
2021/04/01 10:49:41;;;;;;;9.00;4.12;;;;;;;22.87;32.03;96403.33;1755861;81;21188;-81
2021/04/01 10:52:14;;;;;;;10.55;4.08;;;;;;;22.90;31.58;96406.64;1766329;81;21570;-81
2021/04/01 10:54:45;;;;;;;8.50;3.72;;;;;;;22.91;32.41;96396.04;1745264;81;21132;-81
2021/04/01 10:57:29;;;;;;;6.12;3.47;;;;;;;22.91;31.98;96396.61;1763196;81;21197;-81
2021/04/01 11:00:00;;;;;;;7.47;4.03;;;;;;;22.53;29.82;96395.61;1753772;81;21621;-81
2021/04/01 11:02:40;;;;;;;10.90;3.08;;;;;;;22.31;30.21;96391.75;1745374;81;21565;-81
2021/04/01 11:05:15;;;;;;;7.37;3.20;;;;;;;22.36;30.76;96392.80;1748078;81;21453;-81
2021/04/01 11:07:49;;;;;;;6.80;3.15;;;;;;;22.24;30.36;96386.23;1754445;81;21133;-81
2021/04/01 11:10:29;;;;;;;5.35;3.25;;;;;;;22.15;30.88;96379.70;1750982;81;21507;-80
2021/04/01 11:13:00;;;;;;;5.17;2.72;;;;;;;22.07;30.04;96374.52;1764209;81;21193;-81
2021/04/01 11:15:34;;;;;;;7.67;3.45;;;;;;;22.17;30.42;96353.69;1758295;81;21128;-80
2021/04/01 11:18:18;;;;;;;4.37;3.00;;;;;;;22.42;31.63;96371.11;1752560;81;21181;-79
2021/04/01 11:20:52;;;;;;;4.75;3.00;;;;;;;22.46;31.29;96373.86;1763734;80;21166;-80
2021/04/01 11:23:22;;;;;;;5.45;3.27;;;;;;;22.31;29.91;96372.84;1758522;81;21242;-80
2021/04/01 11:25:59;;;;;;;9.70;3.15;;;;;;;22.35;30.74;96363.45;1751481;81;21185;-79
2021/04/01 11:28:44;;;;;;;6.42;3.15;;;;;;;22.41;30.62;96358.75;1753018;81;21158;-79
2021/04/01 11:31:28;;;;;;;9.15;4.45;;;;;;;22.71;30.73;96357.49;1767748;81;21138;-80
2021/04/01 11:33:58;;;;;;;8.08;4.45;;;;;;;23.16;30.88;96359.13;1768135;81;21456;-80
2021/04/01 11:36:30;;;;;;;5.15;3.75;;;;;;;23.24;31.54;96358.09;1761019;81;21142;-80
2021/04/01 11:38:57;;;;;;;7.12;3.83;;;;;;;23.44;31.74;96360.86;1745069;81;21115;-81
2021/04/01 11:41:27;;;;;;;6.72;4.03;;;;;;;23.57;31.63;96354.64;1759717;81;21142;-80
2021/04/01 11:43:58;;;;;;;6.40;3.65;;;;;;;23.62;31.69;96352.98;1756584;81;21121;-80
2021/04/01 11:46:29;;;;;;;5.47;3.02;;;;;;;23.37;29.79;96345.90;1762047;81;21189;-80
2021/04/01 11:48:59;;;;;;;7.92;3.42;;;;;;;23.06;30.70;96343.73;1759308;81;21130;-81
2021/04/01 11:51:29;;;;;;;;;;;;;;;23.19;29.76;96342.16;1703723;83;21179;-80
2021/04/01 11:53:57;;;;;;;6.15;4.03;;;;;;;23.27;29.53;96352.72;1706108;82;20283;-80
2021/04/01 11:56:41;;;;;;;9.45;4.08;;;;;;;23.17;30.20;96344.45;1721873;82;21218;-80
2021/04/01 11:59:16;;;;;;;7.42;3.37;;;;;;;23.22;30.28;96342.77;1702303;84;21204;-80
2021/04/01 12:01:58;;;;;;;8.60;4.40;;;;;;;23.24;30.63;96333.75;1687659;84;21236;-80
2021/04/01 12:04:29;;;;;;;10.50;4.28;;;;;;;23.21;31.28;96337.16;1656218;84;21713;-80
2021/04/01 12:06:56;;;;;;;8.75;4.70;;;;;;;23.26;31.17;96329.53;1695018;84;21150;-80
2021/04/01 12:09:25;;;;;;;7.35;4.00;;;;;;;23.31;31.53;96332.47;1688167;84;21211;-80
2021/04/01 12:11:53;;;;;;;8.75;4.00;;;;;;;23.39;31.11;96326.80;1706782;84;21257;-80
2021/04/01 12:14:20;;;;;;;8.00;4.08;;;;;;;23.32;31.33;96331.33;1696087;84;21125;-80
2021/04/01 12:16:48;;;;;;;9.73;4.50;;;;;;;23.39;31.97;96325.44;1708230;84;21156;-80
2021/04/01 12:19:15;;;;;;;9.58;4.67;;;;;;;23.32;30.30;96320.50;1706179;84;21289;-80
2021/04/01 12:21:42;;;;;;;12.00;4.10;;;;;;;22.97;31.16;96327.59;1704438;84;21123;-80
2021/04/01 12:24:10;;;;;;;6.80;4.08;;;;;;;22.76;31.47;96318.55;1701413;84;21155;-80
2021/04/01 12:26:58;;;;;;;7.30;4.15;;;;;;;22.70;30.56;96297.05;1704364;84;21640;-80
2021/04/01 12:29:22;;;;;;;8.70;4.03;;;;;;;22.45;31.74;96316.36;1700596;84;21161;-80
2021/04/01 12:31:57;;;;;;;6.62;4.20;;;;;;;22.68;31.81;96316.91;1708530;84;21510;-80
2021/04/01 12:34:31;;;;;;;7.62;4.75;;;;;;;22.75;31.42;96312.95;1708306;84;21122;-80
2021/04/01 12:37:03;;;;;;;7.80;4.00;;;;;;;22.53;30.85;96309.16;1693910;84;21481;-80